sensor_id;sensor_type;location;lat;lon;timestamp;pressure;altitude;pressure_sealevel;temperature;humidity
44765;BME280;30484;52.382;5.260;2023-07-20T00:01:09;101585.97;;;19.96;100.00
44765;BME280;30484;52.382;5.260;2023-07-20T00:03:38;101588.94;;;19.93;100.00
44765;BME280;30484;52.382;5.260;2023-07-20T00:06:07;101593.59;;;19.91;100.00
44765;BME280;30484;52.382;5.260;2023-07-20T00:08:36;101596.09;;;19.94;100.00
44765;BME280;30484;52.382;5.260;2023-07-20T00:11:04;101596.19;;;19.81;100.00
44765;BME280;30484;52.382;5.260;2023-07-20T00:13:33;101600.09;;;19.77;100.00
44765;BME280;30484;52.382;5.260;2023-07-20T00:16:03;101594.47;;;19.80;100.00
44765;BME280;30484;52.382;5.260;2023-07-20T00:18:32;101597.25;;;19.78;100.00
44765;BME280;30484;52.382;5.260;2023-07-20T00:21:00;101592.16;;;19.74;100.00
44765;BME280;30484;52.382;5.260;2023-07-20T00:23:29;101594.50;;;19.67;100.00
44765;BME280;30484;52.382;5.260;2023-07-20T00:26:02;101592.00;;;19.53;100.00
44765;BME280;30484;52.382;5.260;2023-07-20T00:28:30;101596.94;;;19.59;100.00
44765;BME280;30484;52.382;5.260;2023-07-20T00:31:00;101588.47;;;19.39;100.00
44765;BME280;30484;52.382;5.260;2023-07-20T00:33:30;101588.84;;;19.35;100.00
44765;BME280;30484;52.382;5.260;2023-07-20T00:35:59;101585.03;;;19.37;100.00
44765;BME280;30484;52.382;5.260;2023-07-20T00:38:27;101585.03;;;19.37;100.00
44765;BME280;30484;52.382;5.260;2023-07-20T00:40:55;101583.78;;;19.30;100.00
44765;BME280;30484;52.382;5.260;2023-07-20T00:43:24;101587.63;;;19.14;100.00
44765;BME280;30484;52.382;5.260;2023-07-20T00:45:53;101584.38;;;19.09;100.00
44765;BME280;30484;52.382;5.260;2023-07-20T00:48:21;101589.81;;;19.09;100.00
44765;BME280;30484;52.382;5.260;2023-07-20T00:50:52;101585.94;;;19.01;100.00
44765;BME280;30484;52.382;5.260;2023-07-20T00:53:20;101588.59;;;19.13;100.00
44765;BME280;30484;52.382;5.260;2023-07-20T00:55:50;101587.34;;;19.06;100.00
44765;BME280;30484;52.382;5.260;2023-07-20T00:58:18;101587.56;;;19.03;100.00
44765;BME280;30484;52.382;5.260;2023-07-20T01:00:47;101583.94;;;18.91;100.00
44765;BME280;30484;52.382;5.260;2023-07-20T01:03:16;101586.75;;;18.90;100.00
44765;BME280;30484;52.382;5.260;2023-07-20T01:05:53;101584.69;;;18.80;100.00
44765;BME280;30484;52.382;5.260;2023-07-20T01:08:31;101584.25;;;18.87;100.00
44765;BME280;30484;52.382;5.260;2023-07-20T01:11:10;101588.81;;;18.73;100.00
44765;BME280;30484;52.382;5.260;2023-07-20T01:13:42;101588.34;;;18.79;100.00
44765;BME280;30484;52.382;5.260;2023-07-20T01:16:14;101582.94;;;18.79;100.00
44765;BME280;30484;52.382;5.260;2023-07-20T01:18:43;101586.97;;;18.87;100.00
44765;BME280;30484;52.382;5.260;2023-07-20T01:21:34;101589.34;;;18.91;100.00
44765;BME280;30484;52.382;5.260;2023-07-20T01:24:45;101587.94;;;18.86;100.00
44765;BME280;30484;52.382;5.260;2023-07-20T01:27:57;101593.78;;;18.79;100.00
44765;BME280;30484;52.382;5.260;2023-07-20T01:30:51;101599.63;;;18.73;100.00
44765;BME280;30484;52.382;5.260;2023-07-20T01:33:24;101597.47;;;18.91;100.00
44765;BME280;30484;52.382;5.260;2023-07-20T01:35:56;101593.75;;;18.92;100.00
44765;BME280;30484;52.382;5.260;2023-07-20T01:38:26;101586.41;;;18.94;100.00
44765;BME280;30484;52.382;5.260;2023-07-20T01:40:55;101600.38;;;19.01;100.00
44765;BME280;30484;52.382;5.260;2023-07-20T01:43:28;101593.56;;;18.95;100.00
44765;BME280;30484;52.382;5.260;2023-07-20T01:45:56;101586.47;;;19.06;100.00
44765;BME280;30484;52.382;5.260;2023-07-20T01:48:26;101594.00;;;18.89;100.00
44765;BME280;30484;52.382;5.260;2023-07-20T01:50:55;101580.88;;;18.96;100.00
44765;BME280;30484;52.382;5.260;2023-07-20T01:53:24;101584.84;;;19.03;100.00
44765;BME280;30484;52.382;5.260;2023-07-20T01:55:53;101585.44;;;18.83;100.00
44765;BME280;30484;52.382;5.260;2023-07-20T01:58:22;101576.00;;;18.88;100.00
44765;BME280;30484;52.382;5.260;2023-07-20T02:00:51;101586.09;;;18.73;100.00
44765;BME280;30484;52.382;5.260;2023-07-20T02:03:20;101585.44;;;18.83;100.00
44765;BME280;30484;52.382;5.260;2023-07-20T02:05:52;101581.00;;;18.82;100.00
44765;BME280;30484;52.382;5.260;2023-07-20T02:08:21;101584.06;;;18.77;100.00
44765;BME280;30484;52.382;5.260;2023-07-20T02:10:52;101579.72;;;18.74;100.00
44765;BME280;30484;52.382;5.260;2023-07-20T02:13:20;101592.22;;;18.64;100.00
44765;BME280;30484;52.382;5.260;2023-07-20T02:15:49;101583.41;;;18.73;100.00
44765;BME280;30484;52.382;5.260;2023-07-20T02:18:18;101583.19;;;18.63;100.00
44765;BME280;30484;52.382;5.260;2023-07-20T02:20:47;101585.78;;;18.65;100.00
44765;BME280;30484;52.382;5.260;2023-07-20T02:23:18;101584.28;;;18.61;100.00
44765;BME280;30484;52.382;5.260;2023-07-20T02:25:47;101589.50;;;18.64;100.00
44765;BME280;30484;52.382;5.260;2023-07-20T02:28:16;101578.25;;;18.57;100.00
44765;BME280;30484;52.382;5.260;2023-07-20T02:30:45;101581.06;;;18.56;100.00
44765;BME280;30484;52.382;5.260;2023-07-20T02:33:16;101584.97;;;18.52;100.00
44765;BME280;30484;52.382;5.260;2023-07-20T02:35:46;101578.59;;;18.53;100.00
44765;BME280;30484;52.382;5.260;2023-07-20T02:38:14;101582.50;;;18.49;100.00
44765;BME280;30484;52.382;5.260;2023-07-20T02:40:45;101583.22;;;18.51;100.00
44765;BME280;30484;52.382;5.260;2023-07-20T02:43:13;101580.00;;;18.45;100.00
44765;BME280;30484;52.382;5.260;2023-07-20T02:45:43;101585.00;;;18.39;100.00
44765;BME280;30484;52.382;5.260;2023-07-20T02:48:12;101584.22;;;18.37;100.00
44765;BME280;30484;52.382;5.260;2023-07-20T02:50:41;101589.75;;;18.22;100.00
44765;BME280;30484;52.382;5.260;2023-07-20T02:53:11;101585.00;;;18.26;100.00
44765;BME280;30484;52.382;5.260;2023-07-20T02:55:40;101589.84;;;18.21;100.00
44765;BME280;30484;52.382;5.260;2023-07-20T02:58:10;101582.41;;;18.11;100.00
44765;BME280;30484;52.382;5.260;2023-07-20T03:00:39;101588.56;;;18.14;100.00
44765;BME280;30484;52.382;5.260;2023-07-20T03:03:08;101592.22;;;18.13;100.00
44765;BME280;30484;52.382;5.260;2023-07-20T03:05:40;101591.03;;;18.17;100.00
44765;BME280;30484;52.382;5.260;2023-07-20T03:08:08;101595.03;;;18.24;100.00
44765;BME280;30484;52.382;5.260;2023-07-20T03:10:41;101595.03;;;17.98;100.00
44765;BME280;30484;52.382;5.260;2023-07-20T03:13:14;101591.03;;;18.17;100.00
44765;BME280;30484;52.382;5.260;2023-07-20T03:15:43;101594.31;;;18.09;100.00
44765;BME280;30484;52.382;5.260;2023-07-20T03:18:12;101605.44;;;18.04;100.00
44765;BME280;30484;52.382;5.260;2023-07-20T03:20:41;101607.50;;;18.01;100.00
44765;BME280;30484;52.382;5.260;2023-07-20T03:23:13;101619.09;;;17.88;100.00
44765;BME280;30484;52.382;5.260;2023-07-20T03:25:43;101630.47;;;17.81;100.00
44765;BME280;30484;52.382;5.260;2023-07-20T03:28:13;101625.63;;;17.86;100.00
44765;BME280;30484;52.382;5.260;2023-07-20T03:30:42;101630.78;;;17.76;100.00
44765;BME280;30484;52.382;5.260;2023-07-20T03:33:12;101623.22;;;17.81;100.00
44765;BME280;30484;52.382;5.260;2023-07-20T03:35:42;101619.66;;;17.81;100.00
44765;BME280;30484;52.382;5.260;2023-07-20T03:38:12;101616.63;;;17.85;100.00
44765;BME280;30484;52.382;5.260;2023-07-20T03:40:49;101615.41;;;17.76;100.00
44765;BME280;30484;52.382;5.260;2023-07-20T03:43:21;101625.34;;;17.63;100.00
44765;BME280;30484;52.382;5.260;2023-07-20T03:45:51;101633.34;;;17.65;100.00
44765;BME280;30484;52.382;5.260;2023-07-20T03:48:24;101637.38;;;17.72;100.00
44765;BME280;30484;52.382;5.260;2023-07-20T03:50:57;101624.78;;;17.58;100.00
44765;BME280;30484;52.382;5.260;2023-07-20T03:53:29;101634.75;;;17.70;100.00
44765;BME280;30484;52.382;5.260;2023-07-20T03:56:03;101634.38;;;17.49;100.00
44765;BME280;30484;52.382;5.260;2023-07-20T03:58:34;101637.00;;;17.64;100.00
44765;BME280;30484;52.382;5.260;2023-07-20T04:01:04;101630.59;;;17.52;100.00
44765;BME280;30484;52.382;5.260;2023-07-20T04:03:35;101627.75;;;17.81;100.00
44765;BME280;30484;52.382;5.260;2023-07-20T04:06:05;101640.72;;;17.75;100.00
44765;BME280;30484;52.382;5.260;2023-07-20T04:08:36;101640.81;;;17.74;100.00
44765;BME280;30484;52.382;5.260;2023-07-20T04:11:05;101635.31;;;17.75;100.00
44765;BME280;30484;52.382;5.260;2023-07-20T04:13:36;101635.31;;;17.75;100.00
44765;BME280;30484;52.382;5.260;2023-07-20T04:16:06;101639.19;;;17.71;100.00
44765;BME280;30484;52.382;5.260;2023-07-20T04:18:35;101643.63;;;17.72;100.00
44765;BME280;30484;52.382;5.260;2023-07-20T04:21:08;101648.06;;;17.73;100.00
44765;BME280;30484;52.382;5.260;2023-07-20T04:23:38;101643.69;;;17.58;100.00
44765;BME280;30484;52.382;5.260;2023-07-20T04:26:08;101646.53;;;17.69;100.00
44765;BME280;30484;52.382;5.260;2023-07-20T04:28:42;101643.28;;;17.64;100.00
44765;BME280;30484;52.382;5.260;2023-07-20T04:31:12;101646.31;;;17.72;100.00
44765;BME280;30484;52.382;5.260;2023-07-20T04:33:42;101654.06;;;17.64;100.00
44765;BME280;30484;52.382;5.260;2023-07-20T04:36:13;101642.78;;;17.72;100.00
44765;BME280;30484;52.382;5.260;2023-07-20T04:38:44;101656.19;;;17.73;100.00
44765;BME280;30484;52.382;5.260;2023-07-20T04:41:13;101661.47;;;17.75;100.00
44765;BME280;30484;52.382;5.260;2023-07-20T04:43:46;101662.44;;;17.74;100.00
44765;BME280;30484;52.382;5.260;2023-07-20T04:46:20;101655.97;;;17.76;100.00
44765;BME280;30484;52.382;5.260;2023-07-20T04:48:52;101659.22;;;17.82;100.00
44765;BME280;30484;52.382;5.260;2023-07-20T04:51:21;101655.47;;;17.84;100.00
44765;BME280;30484;52.382;5.260;2023-07-20T04:53:50;101666.88;;;17.75;100.00
44765;BME280;30484;52.382;5.260;2023-07-20T04:56:20;101656.31;;;17.85;100.00
44765;BME280;30484;52.382;5.260;2023-07-20T04:58:54;101664.31;;;17.86;100.00
44765;BME280;30484;52.382;5.260;2023-07-20T05:01:27;101671.91;;;17.94;100.00
44765;BME280;30484;52.382;5.260;2023-07-20T05:03:57;101674.44;;;17.97;100.00
44765;BME280;30484;52.382;5.260;2023-07-20T05:06:28;101676.25;;;17.97;100.00
44765;BME280;30484;52.382;5.260;2023-07-20T05:08:59;101676.28;;;18.09;100.00
44765;BME280;30484;52.382;5.260;2023-07-20T05:11:28;101677.59;;;18.17;100.00
44765;BME280;30484;52.382;5.260;2023-07-20T05:13:59;101677.28;;;18.21;100.00
44765;BME280;30484;52.382;5.260;2023-07-20T05:16:28;101684.00;;;18.16;100.00
44765;BME280;30484;52.382;5.260;2023-07-20T05:18:57;101676.53;;;18.32;100.00
44765;BME280;30484;52.382;5.260;2023-07-20T05:21:26;101680.00;;;18.34;100.00
44765;BME280;30484;52.382;5.260;2023-07-20T05:23:55;101667.00;;;18.52;100.00
44765;BME280;30484;52.382;5.260;2023-07-20T05:26:24;101677.81;;;18.65;100.00
44765;BME280;30484;52.382;5.260;2023-07-20T05:28:53;101679.88;;;18.74;100.00
44765;BME280;30484;52.382;5.260;2023-07-20T05:31:24;101669.69;;;18.91;100.00
44765;BME280;30484;52.382;5.260;2023-07-20T05:33:58;101672.56;;;19.13;100.00
44765;BME280;30484;52.382;5.260;2023-07-20T05:36:30;101660.94;;;19.24;100.00
44765;BME280;30484;52.382;5.260;2023-07-20T05:39:00;101668.22;;;19.48;100.00
44765;BME280;30484;52.382;5.260;2023-07-20T05:41:29;101672.41;;;19.76;100.00
44765;BME280;30484;52.382;5.260;2023-07-20T05:43:58;101673.19;;;19.78;100.00
44765;BME280;30484;52.382;5.260;2023-07-20T05:46:30;101672.38;;;19.89;100.00
44765;BME280;30484;52.382;5.260;2023-07-20T05:49:21;101673.56;;;20.21;100.00
44765;BME280;30484;52.382;5.260;2023-07-20T05:51:50;101666.44;;;20.20;100.00
44765;BME280;30484;52.382;5.260;2023-07-20T05:54:23;101659.66;;;20.25;100.00
44765;BME280;30484;52.382;5.260;2023-07-20T05:56:52;101651.88;;;20.21;100.00
44765;BME280;30484;52.382;5.260;2023-07-20T05:59:24;101662.03;;;20.41;100.00
44765;BME280;30484;52.382;5.260;2023-07-20T06:01:55;101664.13;;;20.60;100.00
44765;BME280;30484;52.382;5.260;2023-07-20T06:04:27;101666.84;;;20.60;100.00
44765;BME280;30484;52.382;5.260;2023-07-20T06:06:56;101660.84;;;20.68;100.00
44765;BME280;30484;52.382;5.260;2023-07-20T06:09:25;101661.06;;;20.42;100.00
44765;BME280;30484;52.382;5.260;2023-07-20T06:11:57;101662.66;;;20.56;100.00
44765;BME280;30484;52.382;5.260;2023-07-20T06:14:30;101662.81;;;20.77;100.00
44765;BME280;30484;52.382;5.260;2023-07-20T06:17:01;101658.72;;;20.83;100.00
44765;BME280;30484;52.382;5.260;2023-07-20T06:19:33;101669.22;;;20.76;100.00
44765;BME280;30484;52.382;5.260;2023-07-20T06:22:03;101657.25;;;20.79;100.00
44765;BME280;30484;52.382;5.260;2023-07-20T06:24:33;101674.34;;;20.34;100.00
44765;BME280;30484;52.382;5.260;2023-07-20T06:27:03;101677.84;;;20.59;100.00
44765;BME280;30484;52.382;5.260;2023-07-20T06:29:33;101674.13;;;20.60;100.00
44765;BME280;30484;52.382;5.260;2023-07-20T06:32:05;101670.28;;;20.40;100.00
44765;BME280;30484;52.382;5.260;2023-07-20T06:34:35;101666.94;;;20.36;100.00
44765;BME280;30484;52.382;5.260;2023-07-20T06:37:06;101675.53;;;20.77;100.00
44765;BME280;30484;52.382;5.260;2023-07-20T06:39:35;101675.41;;;20.67;100.00
44765;BME280;30484;52.382;5.260;2023-07-20T06:42:08;101667.59;;;20.96;100.00
44765;BME280;30484;52.382;5.260;2023-07-20T06:44:37;101680.72;;;21.02;100.00
44765;BME280;30484;52.382;5.260;2023-07-20T06:47:07;101679.94;;;21.12;100.00
44765;BME280;30484;52.382;5.260;2023-07-20T06:49:41;101681.19;;;20.96;100.00
44765;BME280;30484;52.382;5.260;2023-07-20T06:52:12;101683.31;;;20.81;100.00
44765;BME280;30484;52.382;5.260;2023-07-20T06:54:40;101687.00;;;21.03;100.00
44765;BME280;30484;52.382;5.260;2023-07-20T06:57:11;101683.94;;;21.63;100.00
44765;BME280;30484;52.382;5.260;2023-07-20T06:59:45;101681.47;;;21.60;100.00
44765;BME280;30484;52.382;5.260;2023-07-20T07:02:16;101686.44;;;21.87;100.00
44765;BME280;30484;52.382;5.260;2023-07-20T07:04:46;101690.47;;;21.93;100.00
44765;BME280;30484;52.382;5.260;2023-07-20T07:07:15;101686.50;;;21.97;100.00
44765;BME280;30484;52.382;5.260;2023-07-20T07:09:55;101676.28;;;22.10;100.00
44765;BME280;30484;52.382;5.260;2023-07-20T07:12:29;101684.59;;;21.76;100.00
44765;BME280;30484;52.382;5.260;2023-07-20T07:14:58;101681.28;;;21.72;100.00
44765;BME280;30484;52.382;5.260;2023-07-20T07:17:28;101685.72;;;22.27;100.00
44765;BME280;30484;52.382;5.260;2023-07-20T07:20:01;101682.41;;;22.23;100.00
44765;BME280;30484;52.382;5.260;2023-07-20T07:22:36;101681.94;;;22.18;100.00
44765;BME280;30484;52.382;5.260;2023-07-20T07:25:10;101683.59;;;22.31;100.00
44765;BME280;30484;52.382;5.260;2023-07-20T07:27:50;101686.84;;;22.46;100.00
44765;BME280;30484;52.382;5.260;2023-07-20T07:30:20;101687.84;;;22.23;100.00
44765;BME280;30484;52.382;5.260;2023-07-20T07:32:55;101672.13;;;22.79;100.00
44765;BME280;30484;52.382;5.260;2023-07-20T07:35:27;101677.06;;;22.95;100.00
44765;BME280;30484;52.382;5.260;2023-07-20T07:38:08;101679.75;;;22.85;100.00
44765;BME280;30484;52.382;5.260;2023-07-20T07:41:19;101684.06;;;22.15;100.00
44765;BME280;30484;52.382;5.260;2023-07-20T07:44:10;101675.44;;;22.52;100.00
44765;BME280;30484;52.382;5.260;2023-07-20T07:46:43;101685.94;;;22.56;100.00
44765;BME280;30484;52.382;5.260;2023-07-20T07:49:26;101690.16;;;22.70;100.00
44765;BME280;30484;52.382;5.260;2023-07-20T07:52:08;101692.91;;;22.49;100.00
44765;BME280;30484;52.382;5.260;2023-07-20T07:55:01;101688.38;;;23.31;100.00
44765;BME280;30484;52.382;5.260;2023-07-20T07:57:39;101697.31;;;23.43;100.00
44765;BME280;30484;52.382;5.260;2023-07-20T08:00:29;101694.00;;;23.49;100.00
44765;BME280;30484;52.382;5.260;2023-07-20T08:02:59;101695.09;;;23.87;100.00
44765;BME280;30484;52.382;5.260;2023-07-20T08:05:30;101694.78;;;24.10;100.00
44765;BME280;30484;52.382;5.260;2023-07-20T08:08:05;101691.88;;;23.63;100.00
44765;BME280;30484;52.382;5.260;2023-07-20T08:10:37;101695.94;;;23.98;100.00
44765;BME280;30484;52.382;5.260;2023-07-20T08:13:06;101704.13;;;23.98;100.00
44765;BME280;30484;52.382;5.260;2023-07-20T08:15:37;101696.28;;;23.44;100.00
44765;BME280;30484;52.382;5.260;2023-07-20T08:18:08;101703.69;;;23.92;100.00
44765;BME280;30484;52.382;5.260;2023-07-20T08:20:44;101695.75;;;23.70;100.00
44765;BME280;30484;52.382;5.260;2023-07-20T08:23:20;101700.25;;;24.10;100.00
44765;BME280;30484;52.382;5.260;2023-07-20T08:25:49;101703.50;;;23.55;100.00
44765;BME280;30484;52.382;5.260;2023-07-20T08:28:21;101697.63;;;23.69;100.00
44765;BME280;30484;52.382;5.260;2023-07-20T08:30:53;101709.69;;;24.25;100.00
44765;BME280;30484;52.382;5.260;2023-07-20T08:33:22;101702.22;;;23.78;100.00
44765;BME280;30484;52.382;5.260;2023-07-20T08:35:56;101705.59;;;24.69;100.00
44765;BME280;30484;52.382;5.260;2023-07-20T08:38:35;101706.13;;;24.05;100.00
44765;BME280;30484;52.382;5.260;2023-07-20T08:41:13;101700.72;;;24.62;100.00
44765;BME280;30484;52.382;5.260;2023-07-20T08:43:47;101714.53;;;24.51;100.00
44765;BME280;30484;52.382;5.260;2023-07-20T08:46:32;101715.16;;;24.25;100.00
44765;BME280;30484;52.382;5.260;2023-07-20T08:49:07;101714.91;;;24.09;100.00
44765;BME280;30484;52.382;5.260;2023-07-20T08:51:41;101714.28;;;24.44;100.00
44765;BME280;30484;52.382;5.260;2023-07-20T08:54:17;101701.50;;;24.16;100.00
44765;BME280;30484;52.382;5.260;2023-07-20T08:56:49;101709.28;;;24.87;100.00
44765;BME280;30484;52.382;5.260;2023-07-20T08:59:22;101713.75;;;24.02;100.00
44765;BME280;30484;52.382;5.260;2023-07-20T09:01:52;101711.47;;;24.74;100.00
44765;BME280;30484;52.382;5.260;2023-07-20T09:04:25;101716.59;;;25.24;100.00
44765;BME280;30484;52.382;5.260;2023-07-20T09:06:57;101701.16;;;24.95;100.00
44765;BME280;30484;52.382;5.260;2023-07-20T09:09:27;101709.41;;;25.51;100.00
44765;BME280;30484;52.382;5.260;2023-07-20T09:11:56;101714.06;;;25.13;100.00
44765;BME280;30484;52.382;5.260;2023-07-20T09:14:25;101708.69;;;25.49;100.00
44765;BME280;30484;52.382;5.260;2023-07-20T09:16:55;101708.38;;;25.52;100.00
44765;BME280;30484;52.382;5.260;2023-07-20T09:19:25;101708.28;;;25.98;100.00
44765;BME280;30484;52.382;5.260;2023-07-20T09:21:56;101713.31;;;25.66;100.00
44765;BME280;30484;52.382;5.260;2023-07-20T09:24:29;101712.19;;;25.59;100.00
44765;BME280;30484;52.382;5.260;2023-07-20T09:27:02;101700.38;;;25.41;100.00
44765;BME280;30484;52.382;5.260;2023-07-20T09:29:48;101704.72;;;24.68;100.00
44765;BME280;30484;52.382;5.260;2023-07-20T09:32:21;101700.75;;;25.18;100.00
44765;BME280;30484;52.382;5.260;2023-07-20T09:34:52;101695.56;;;25.71;100.00
44765;BME280;30484;52.382;5.260;2023-07-20T09:37:24;101701.25;;;26.31;100.00
44765;BME280;30484;52.382;5.260;2023-07-20T09:39:57;101696.88;;;25.84;100.00
44765;BME280;30484;52.382;5.260;2023-07-20T09:42:34;101688.38;;;25.70;100.00
44765;BME280;30484;52.382;5.260;2023-07-20T09:45:07;101696.50;;;25.61;100.00
44765;BME280;30484;52.382;5.260;2023-07-20T09:47:42;101701.44;;;25.76;100.00
44765;BME280;30484;52.382;5.260;2023-07-20T09:50:39;101695.97;;;25.94;100.00
44765;BME280;30484;52.382;5.260;2023-07-20T09:53:12;101697.03;;;26.19;100.00
44765;BME280;30484;52.382;5.260;2023-07-20T09:55:43;101694.78;;;26.41;100.00
44765;BME280;30484;52.382;5.260;2023-07-20T09:58:15;101696.50;;;25.97;100.00
44765;BME280;30484;52.382;5.260;2023-07-20T10:00:46;101694.50;;;26.70;100.00
44765;BME280;30484;52.382;5.260;2023-07-20T10:03:29;101689.41;;;26.75;100.00
44765;BME280;30484;52.382;5.260;2023-07-20T10:06:06;101684.63;;;26.59;100.00
44765;BME280;30484;52.382;5.260;2023-07-20T10:08:40;101693.19;;;26.56;100.00
44765;BME280;30484;52.382;5.260;2023-07-20T10:11:15;101689.78;;;26.89;100.00
44765;BME280;30484;52.382;5.260;2023-07-20T10:13:47;101692.44;;;26.46;100.00
44765;BME280;30484;52.382;5.260;2023-07-20T10:16:26;101693.13;;;27.09;100.00
44765;BME280;30484;52.382;5.260;2023-07-20T10:19:07;101690.63;;;27.24;100.00
44765;BME280;30484;52.382;5.260;2023-07-20T10:21:45;101691.22;;;27.60;100.00
44765;BME280;30484;52.382;5.260;2023-07-20T10:24:24;101694.34;;;27.90;100.00
44765;BME280;30484;52.382;5.260;2023-07-20T10:26:55;101690.78;;;27.98;100.00
44765;BME280;30484;52.382;5.260;2023-07-20T10:29:24;101690.78;;;28.31;100.00
44765;BME280;30484;52.382;5.260;2023-07-20T10:31:57;101687.25;;;27.38;100.00
44765;BME280;30484;52.382;5.260;2023-07-20T10:34:26;101688.97;;;27.47;100.00
44765;BME280;30484;52.382;5.260;2023-07-20T10:36:54;101684.03;;;27.51;100.00
44765;BME280;30484;52.382;5.260;2023-07-20T10:39:28;101683.88;;;27.77;100.00
44765;BME280;30484;52.382;5.260;2023-07-20T10:42:03;101681.78;;;27.38;100.00
44765;BME280;30484;52.382;5.260;2023-07-20T10:44:37;101686.09;;;27.65;100.00
44765;BME280;30484;52.382;5.260;2023-07-20T10:47:10;101672.34;;;27.49;100.00
44765;BME280;30484;52.382;5.260;2023-07-20T10:49:58;101675.47;;;27.95;100.00
44765;BME280;30484;52.382;5.260;2023-07-20T10:52:27;101677.22;;;27.96;100.00
44765;BME280;30484;52.382;5.260;2023-07-20T10:55:15;101667.94;;;27.13;100.00
44765;BME280;30484;52.382;5.260;2023-07-20T10:58:12;101671.00;;;27.61;100.00
44765;BME280;30484;52.382;5.260;2023-07-20T11:01:00;101666.53;;;27.60;100.00
44765;BME280;30484;52.382;5.260;2023-07-20T11:03:33;101659.53;;;28.15;100.00
44765;BME280;30484;52.382;5.260;2023-07-20T11:06:33;101665.50;;;27.86;100.00
44765;BME280;30484;52.382;5.260;2023-07-20T11:09:10;101662.75;;;28.35;100.00
44765;BME280;30484;52.382;5.260;2023-07-20T11:11:48;101666.53;;;28.99;100.00
44765;BME280;30484;52.382;5.260;2023-07-20T11:14:24;101665.16;;;29.34;100.00
44765;BME280;30484;52.382;5.260;2023-07-20T11:16:54;101659.91;;;28.85;100.00
44765;BME280;30484;52.382;5.260;2023-07-20T11:19:25;101655.94;;;28.06;100.00
44765;BME280;30484;52.382;5.260;2023-07-20T11:21:58;101660.34;;;29.59;100.00
44765;BME280;30484;52.382;5.260;2023-07-20T11:24:31;101652.59;;;28.52;100.00
44765;BME280;30484;52.382;5.260;2023-07-20T11:27:02;101658.28;;;29.85;100.00
44765;BME280;30484;52.382;5.260;2023-07-20T11:29:31;101660.09;;;29.69;100.00
44765;BME280;30484;52.382;5.260;2023-07-20T11:32:01;101658.81;;;28.94;100.00
44765;BME280;30484;52.382;5.260;2023-07-20T11:34:36;101649.69;;;29.02;100.00
44765;BME280;30484;52.382;5.260;2023-07-20T11:37:06;101644.75;;;29.20;99.64
44765;BME280;30484;52.382;5.260;2023-07-20T11:39:37;101644.63;;;29.68;100.00
44765;BME280;30484;52.382;5.260;2023-07-20T11:42:08;101637.59;;;29.89;100.00
44765;BME280;30484;52.382;5.260;2023-07-20T11:44:37;101641.59;;;30.01;100.00
44765;BME280;30484;52.382;5.260;2023-07-20T11:47:09;101637.31;;;30.67;100.00
44765;BME280;30484;52.382;5.260;2023-07-20T11:49:41;101644.84;;;30.05;100.00
44765;BME280;30484;52.382;5.260;2023-07-20T11:52:15;101637.94;;;29.08;100.00
44765;BME280;30484;52.382;5.260;2023-07-20T11:54:44;101629.34;;;29.89;100.00
44765;BME280;30484;52.382;5.260;2023-07-20T11:57:18;101639.28;;;30.13;100.00
44765;BME280;30484;52.382;5.260;2023-07-20T11:59:53;101629.88;;;30.37;100.00
44765;BME280;30484;52.382;5.260;2023-07-20T12:02:27;101635.56;;;30.06;100.00
44765;BME280;30484;52.382;5.260;2023-07-20T12:04:57;101630.69;;;29.93;100.00
44765;BME280;30484;52.382;5.260;2023-07-20T12:07:28;101637.16;;;29.22;100.00
44765;BME280;30484;52.382;5.260;2023-07-20T12:10:06;101634.63;;;29.67;100.00
44765;BME280;30484;52.382;5.260;2023-07-20T12:12:40;101633.03;;;30.64;100.00
44765;BME280;30484;52.382;5.260;2023-07-20T12:15:16;101621.59;;;30.07;100.00
44765;BME280;30484;52.382;5.260;2023-07-20T12:17:46;101633.44;;;30.08;100.00
44765;BME280;30484;52.382;5.260;2023-07-20T12:20:31;101630.72;;;28.67;100.00
44765;BME280;30484;52.382;5.260;2023-07-20T12:23:02;101628.91;;;29.54;100.00
44765;BME280;30484;52.382;5.260;2023-07-20T12:25:39;101626.94;;;29.39;100.00
44765;BME280;30484;52.382;5.260;2023-07-20T12:28:19;101627.59;;;29.41;100.00
44765;BME280;30484;52.382;5.260;2023-07-20T12:30:49;101627.91;;;29.23;100.00
44765;BME280;30484;52.382;5.260;2023-07-20T12:33:24;101628.47;;;29.65;100.00
44765;BME280;30484;52.382;5.260;2023-07-20T12:35:53;101617.53;;;29.34;100.00
44765;BME280;30484;52.382;5.260;2023-07-20T12:38:27;101625.94;;;28.53;100.00
44765;BME280;30484;52.382;5.260;2023-07-20T12:40:59;101616.06;;;30.07;100.00
44765;BME280;30484;52.382;5.260;2023-07-20T12:43:31;101619.19;;;30.04;100.00
44765;BME280;30484;52.382;5.260;2023-07-20T12:46:03;101614.16;;;30.08;100.00
44765;BME280;30484;52.382;5.260;2023-07-20T12:48:35;101617.03;;;31.04;100.00
44765;BME280;30484;52.382;5.260;2023-07-20T12:51:15;101606.25;;;31.31;100.00
44765;BME280;30484;52.382;5.260;2023-07-20T12:53:46;101615.56;;;31.66;100.00
44765;BME280;30484;52.382;5.260;2023-07-20T12:56:19;101600.75;;;31.31;98.03
44765;BME280;30484;52.382;5.260;2023-07-20T12:58:58;101596.00;;;31.46;100.00
44765;BME280;30484;52.382;5.260;2023-07-20T13:01:36;101600.84;;;31.88;100.00
44765;BME280;30484;52.382;5.260;2023-07-20T13:04:05;101606.72;;;30.61;100.00
44765;BME280;30484;52.382;5.260;2023-07-20T13:06:43;101608.84;;;30.81;100.00
44765;BME280;30484;52.382;5.260;2023-07-20T13:09:17;101601.75;;;30.42;100.00